OIAM  Mahshahr  Airport

Iran

Add Bookmark
ICAO OIAM
IATA MRX
Type Airport
Status Operational
Latitude
30° 33' 22" N
30.556200
Longitude
49° 9' 6" E
49.151901
Local (DST + 5) UTC (GMT + 4)
May 23, 2015 01:04 May 22, 2015 20:34
Sunrise-Sunset Local UTC
Begin Civil Twilight 05:46 01:16
Sunrise 06:13 01:43
Sunset 08:07 15:37
End Civil Twilight 08:33 16:03
VFR
VFR
MVFR
MVFR
IFR
VFR
LIFR
VFR
Unknown
Unavailable

Current Weather

METAR Observed VFR
OIAM 222000Z 11010KT CAVOK 32/05 Q1003 Fri, May 22, 2015 @ 20:00 UTC
(34 Minutes ago)
Visual Flight Rules
Wind Visibility Conditions
110° at 10 knots (19 kph) 10 km or more
  • No significant weather
Temperatures Readings Precipitation
Current Temp
32°C
90°F
Dewpoint
5°C
41°F
Humidity 18%
Altimeter 29.62" Hg
Sea Level Pressure 1,003 mb
Field Elevation
4 m
13 ft
None Recorded

Additional weather within a 92.6km radius of OIAM

Map ICAO Location
OIAG 54.4km E/NE (067°)
VFR
VFR
MVFR
MVFR
IFR
VFR
LIFR
VFR
Unknown
Unavailable
-
-

CheckWX.com is intended as a tool to help pilots better visualize weather data. It is not intended as a substitute for an official weather briefing obtained from a Flight Service Station. CheckWX.com does not meet the FAA requirements for an official pre-flight weather briefing. Therefore, it's important that pilots still call and obtain an official FSS pre-flight weather briefing.

© 2007-2015 CheckWX.com
20:34:16 UTC